sensor_id;sensor_type;location;lat;lon;timestamp;P1;durP1;ratioP1;P2;durP2;ratioP2
41687;SDS011;27371;42.686;23.362;2023-02-28T00:00:24;22.20;;;15.07;;
41687;SDS011;27371;42.686;23.362;2023-02-28T00:02:50;26.17;;;15.43;;
41687;SDS011;27371;42.686;23.362;2023-02-28T00:05:17;19.33;;;13.32;;
41687;SDS011;27371;42.686;23.362;2023-02-28T00:07:44;18.45;;;12.52;;
41687;SDS011;27371;42.686;23.362;2023-02-28T00:10:11;18.60;;;12.68;;
41687;SDS011;27371;42.686;23.362;2023-02-28T00:12:39;19.00;;;12.50;;
41687;SDS011;27371;42.686;23.362;2023-02-28T00:15:05;18.33;;;13.15;;
41687;SDS011;27371;42.686;23.362;2023-02-28T00:17:35;19.23;;;12.88;;
41687;SDS011;27371;42.686;23.362;2023-02-28T00:20:02;18.20;;;12.10;;
41687;SDS011;27371;42.686;23.362;2023-02-28T00:22:48;18.75;;;12.65;;
41687;SDS011;27371;42.686;23.362;2023-02-28T00:25:19;22.17;;;13.45;;
41687;SDS011;27371;42.686;23.362;2023-02-28T00:27:46;18.75;;;12.95;;
41687;SDS011;27371;42.686;23.362;2023-02-28T00:30:14;22.98;;;14.02;;
41687;SDS011;27371;42.686;23.362;2023-02-28T00:32:44;20.50;;;14.00;;
41687;SDS011;27371;42.686;23.362;2023-02-28T00:35:10;19.67;;;13.60;;
41687;SDS011;27371;42.686;23.362;2023-02-28T00:37:36;20.33;;;14.18;;
41687;SDS011;27371;42.686;23.362;2023-02-28T00:40:02;19.80;;;14.50;;
41687;SDS011;27371;42.686;23.362;2023-02-28T00:42:30;22.27;;;16.20;;
41687;SDS011;27371;42.686;23.362;2023-02-28T00:44:55;22.38;;;14.88;;
41687;SDS011;27371;42.686;23.362;2023-02-28T00:47:21;22.23;;;16.30;;
41687;SDS011;27371;42.686;23.362;2023-02-28T00:49:46;22.30;;;15.65;;
41687;SDS011;27371;42.686;23.362;2023-02-28T00:52:12;28.13;;;17.75;;
41687;SDS011;27371;42.686;23.362;2023-02-28T00:54:37;26.92;;;18.00;;
41687;SDS011;27371;42.686;23.362;2023-02-28T00:57:03;23.98;;;17.05;;
41687;SDS011;27371;42.686;23.362;2023-02-28T00:59:28;24.67;;;16.98;;
41687;SDS011;27371;42.686;23.362;2023-02-28T01:06:54;21.83;;;14.00;;
41687;SDS011;27371;42.686;23.362;2023-02-28T01:09:20;22.40;;;14.63;;
41687;SDS011;27371;42.686;23.362;2023-02-28T01:11:45;22.35;;;14.70;;
41687;SDS011;27371;42.686;23.362;2023-02-28T01:14:12;22.98;;;15.20;;
41687;SDS011;27371;42.686;23.362;2023-02-28T01:16:38;21.42;;;15.27;;
41687;SDS011;27371;42.686;23.362;2023-02-28T01:19:04;20.73;;;15.10;;
41687;SDS011;27371;42.686;23.362;2023-02-28T01:21:29;25.05;;;15.80;;
41687;SDS011;27371;42.686;23.362;2023-02-28T01:23:56;22.92;;;15.73;;
41687;SDS011;27371;42.686;23.362;2023-02-28T01:26:23;23.75;;;15.20;;
41687;SDS011;27371;42.686;23.362;2023-02-28T01:28:50;20.85;;;14.32;;
41687;SDS011;27371;42.686;23.362;2023-02-28T01:31:17;22.17;;;14.80;;
41687;SDS011;27371;42.686;23.362;2023-02-28T01:33:43;21.45;;;14.15;;
41687;SDS011;27371;42.686;23.362;2023-02-28T01:36:09;28.70;;;15.10;;
41687;SDS011;27371;42.686;23.362;2023-02-28T01:38:36;20.27;;;14.27;;
41687;SDS011;27371;42.686;23.362;2023-02-28T01:41:02;20.42;;;13.73;;
41687;SDS011;27371;42.686;23.362;2023-02-28T01:43:35;22.27;;;14.85;;
41687;SDS011;27371;42.686;23.362;2023-02-28T01:46:14;22.90;;;14.85;;
41687;SDS011;27371;42.686;23.362;2023-02-28T01:48:44;19.85;;;14.38;;
41687;SDS011;27371;42.686;23.362;2023-02-28T01:51:17;20.77;;;13.20;;
41687;SDS011;27371;42.686;23.362;2023-02-28T01:53:48;18.77;;;12.82;;
41687;SDS011;27371;42.686;23.362;2023-02-28T01:56:17;17.13;;;13.00;;
41687;SDS011;27371;42.686;23.362;2023-02-28T01:58:48;20.00;;;13.02;;
41687;SDS011;27371;42.686;23.362;2023-02-28T02:01:16;22.67;;;13.15;;
41687;SDS011;27371;42.686;23.362;2023-02-28T02:03:57;19.48;;;13.25;;
41687;SDS011;27371;42.686;23.362;2023-02-28T02:06:31;23.42;;;14.38;;
41687;SDS011;27371;42.686;23.362;2023-02-28T02:09:03;21.30;;;14.50;;
41687;SDS011;27371;42.686;23.362;2023-02-28T02:11:29;22.85;;;15.77;;
41687;SDS011;27371;42.686;23.362;2023-02-28T02:36:42;25.30;;;15.65;;
41687;SDS011;27371;42.686;23.362;2023-02-28T02:39:19;23.52;;;15.80;;
41687;SDS011;27371;42.686;23.362;2023-02-28T02:41:54;24.73;;;16.45;;
41687;SDS011;27371;42.686;23.362;2023-02-28T02:46:58;26.25;;;18.05;;
41687;SDS011;27371;42.686;23.362;2023-02-28T02:49:30;26.95;;;18.13;;
41687;SDS011;27371;42.686;23.362;2023-02-28T02:51:58;28.13;;;18.70;;
41687;SDS011;27371;42.686;23.362;2023-02-28T02:54:29;25.58;;;18.48;;
41687;SDS011;27371;42.686;23.362;2023-02-28T02:56:59;28.42;;;18.55;;
41687;SDS011;27371;42.686;23.362;2023-02-28T02:59:28;29.67;;;17.98;;
41687;SDS011;27371;42.686;23.362;2023-02-28T03:01:56;30.17;;;18.73;;
41687;SDS011;27371;42.686;23.362;2023-02-28T03:04:25;29.33;;;19.38;;
41687;SDS011;27371;42.686;23.362;2023-02-28T03:06:55;31.02;;;19.75;;
41687;SDS011;27371;42.686;23.362;2023-02-28T03:09:21;27.85;;;19.35;;
41687;SDS011;27371;42.686;23.362;2023-02-28T03:11:47;31.50;;;20.15;;
41687;SDS011;27371;42.686;23.362;2023-02-28T03:25:08;41.55;;;23.30;;
41687;SDS011;27371;42.686;23.362;2023-02-28T03:27:42;38.60;;;24.08;;
41687;SDS011;27371;42.686;23.362;2023-02-28T03:30:20;39.00;;;24.02;;
41687;SDS011;27371;42.686;23.362;2023-02-28T03:35:39;41.08;;;24.05;;
41687;SDS011;27371;42.686;23.362;2023-02-28T03:41:00;51.22;;;23.58;;
41687;SDS011;27371;42.686;23.362;2023-02-28T03:43:32;54.60;;;23.60;;
41687;SDS011;27371;42.686;23.362;2023-02-28T03:46:02;50.25;;;24.55;;
41687;SDS011;27371;42.686;23.362;2023-02-28T03:48:41;46.33;;;25.20;;
41687;SDS011;27371;42.686;23.362;2023-02-28T03:51:16;40.80;;;24.17;;
41687;SDS011;27371;42.686;23.362;2023-02-28T03:53:53;38.00;;;22.40;;
41687;SDS011;27371;42.686;23.362;2023-02-28T03:56:34;46.15;;;22.40;;
41687;SDS011;27371;42.686;23.362;2023-02-28T04:01:47;44.30;;;23.02;;
41687;SDS011;27371;42.686;23.362;2023-02-28T04:04:14;45.78;;;24.73;;
41687;SDS011;27371;42.686;23.362;2023-02-28T04:06:42;46.15;;;24.02;;
41687;SDS011;27371;42.686;23.362;2023-02-28T04:09:09;100.53;;;26.63;;
41687;SDS011;27371;42.686;23.362;2023-02-28T04:11:45;61.55;;;27.10;;
41687;SDS011;27371;42.686;23.362;2023-02-28T04:14:18;65.72;;;23.80;;
41687;SDS011;27371;42.686;23.362;2023-02-28T04:16:44;38.15;;;20.80;;
41687;SDS011;27371;42.686;23.362;2023-02-28T04:19:10;56.33;;;21.70;;
41687;SDS011;27371;42.686;23.362;2023-02-28T04:21:41;44.20;;;22.02;;
41687;SDS011;27371;42.686;23.362;2023-02-28T04:24:08;79.65;;;22.45;;
41687;SDS011;27371;42.686;23.362;2023-02-28T04:26:39;55.58;;;21.67;;
41687;SDS011;27371;42.686;23.362;2023-02-28T04:29:06;66.75;;;24.67;;
41687;SDS011;27371;42.686;23.362;2023-02-28T04:31:32;84.28;;;24.10;;
41687;SDS011;27371;42.686;23.362;2023-02-28T04:33:59;49.15;;;24.25;;
41687;SDS011;27371;42.686;23.362;2023-02-28T04:36:25;69.93;;;25.13;;
41687;SDS011;27371;42.686;23.362;2023-02-28T04:38:51;104.90;;;25.73;;
41687;SDS011;27371;42.686;23.362;2023-02-28T04:41:17;77.07;;;28.42;;
41687;SDS011;27371;42.686;23.362;2023-02-28T04:43:43;98.03;;;27.55;;
41687;SDS011;27371;42.686;23.362;2023-02-28T04:46:09;91.13;;;25.15;;
41687;SDS011;27371;42.686;23.362;2023-02-28T04:48:36;81.38;;;24.52;;
41687;SDS011;27371;42.686;23.362;2023-02-28T04:51:09;56.08;;;20.42;;
41687;SDS011;27371;42.686;23.362;2023-02-28T04:53:38;37.47;;;21.40;;
41687;SDS011;27371;42.686;23.362;2023-02-28T04:56:05;46.28;;;23.17;;
41687;SDS011;27371;42.686;23.362;2023-02-28T04:58:31;51.10;;;24.88;;
41687;SDS011;27371;42.686;23.362;2023-02-28T05:01:07;48.30;;;24.83;;
41687;SDS011;27371;42.686;23.362;2023-02-28T05:04:02;76.38;;;30.42;;
41687;SDS011;27371;42.686;23.362;2023-02-28T05:06:30;65.80;;;30.20;;
41687;SDS011;27371;42.686;23.362;2023-02-28T05:08:56;71.60;;;31.05;;
41687;SDS011;27371;42.686;23.362;2023-02-28T05:13:48;63.70;;;28.90;;
41687;SDS011;27371;42.686;23.362;2023-02-28T05:16:14;68.53;;;28.08;;
41687;SDS011;27371;42.686;23.362;2023-02-28T05:18:40;127.13;;;33.10;;
41687;SDS011;27371;42.686;23.362;2023-02-28T05:21:06;109.10;;;32.70;;
41687;SDS011;27371;42.686;23.362;2023-02-28T05:23:48;119.63;;;31.58;;
41687;SDS011;27371;42.686;23.362;2023-02-28T05:26:14;95.05;;;30.52;;
41687;SDS011;27371;42.686;23.362;2023-02-28T05:28:39;103.53;;;30.70;;
41687;SDS011;27371;42.686;23.362;2023-02-28T05:31:05;64.50;;;29.60;;
41687;SDS011;27371;42.686;23.362;2023-02-28T05:33:30;83.93;;;29.45;;
41687;SDS011;27371;42.686;23.362;2023-02-28T05:35:55;58.90;;;28.25;;
41687;SDS011;27371;42.686;23.362;2023-02-28T05:38:21;56.55;;;28.30;;
41687;SDS011;27371;42.686;23.362;2023-02-28T05:40:46;63.05;;;29.65;;
41687;SDS011;27371;42.686;23.362;2023-02-28T05:43:12;50.70;;;28.50;;
41687;SDS011;27371;42.686;23.362;2023-02-28T05:45:37;43.40;;;24.52;;
41687;SDS011;27371;42.686;23.362;2023-02-28T05:48:03;51.20;;;25.15;;
41687;SDS011;27371;42.686;23.362;2023-02-28T05:50:28;51.13;;;26.70;;
41687;SDS011;27371;42.686;23.362;2023-02-28T05:52:54;70.43;;;27.30;;
41687;SDS011;27371;42.686;23.362;2023-02-28T05:55:19;55.90;;;24.45;;
41687;SDS011;27371;42.686;23.362;2023-02-28T05:57:45;58.85;;;24.85;;
41687;SDS011;27371;42.686;23.362;2023-02-28T06:00:11;55.70;;;25.25;;
41687;SDS011;27371;42.686;23.362;2023-02-28T06:02:38;52.05;;;25.77;;
41687;SDS011;27371;42.686;23.362;2023-02-28T06:05:05;63.55;;;28.02;;
41687;SDS011;27371;42.686;23.362;2023-02-28T06:07:37;90.32;;;29.60;;
41687;SDS011;27371;42.686;23.362;2023-02-28T06:10:03;63.22;;;29.08;;
41687;SDS011;27371;42.686;23.362;2023-02-28T06:12:29;64.10;;;30.33;;
41687;SDS011;27371;42.686;23.362;2023-02-28T06:14:54;91.85;;;30.67;;
41687;SDS011;27371;42.686;23.362;2023-02-28T06:17:20;100.68;;;32.85;;
41687;SDS011;27371;42.686;23.362;2023-02-28T06:19:45;79.18;;;33.65;;
41687;SDS011;27371;42.686;23.362;2023-02-28T06:22:11;72.55;;;34.10;;
41687;SDS011;27371;42.686;23.362;2023-02-28T06:24:36;64.70;;;33.00;;
41687;SDS011;27371;42.686;23.362;2023-02-28T06:27:02;62.45;;;32.03;;
41687;SDS011;27371;42.686;23.362;2023-02-28T06:29:33;73.82;;;35.38;;
41687;SDS011;27371;42.686;23.362;2023-02-28T06:31:59;73.85;;;35.97;;
41687;SDS011;27371;42.686;23.362;2023-02-28T06:34:25;80.97;;;38.53;;
41687;SDS011;27371;42.686;23.362;2023-02-28T06:36:51;77.15;;;39.15;;
41687;SDS011;27371;42.686;23.362;2023-02-28T06:39:17;77.38;;;37.28;;
41687;SDS011;27371;42.686;23.362;2023-02-28T06:41:43;68.55;;;35.75;;
41687;SDS011;27371;42.686;23.362;2023-02-28T06:44:14;73.45;;;36.00;;
41687;SDS011;27371;42.686;23.362;2023-02-28T06:46:41;57.33;;;32.10;;
41687;SDS011;27371;42.686;23.362;2023-02-28T06:49:08;56.15;;;33.83;;
41687;SDS011;27371;42.686;23.362;2023-02-28T06:51:34;51.22;;;30.58;;
41687;SDS011;27371;42.686;23.362;2023-02-28T06:54:01;44.70;;;28.73;;
41687;SDS011;27371;42.686;23.362;2023-02-28T06:56:27;41.25;;;26.10;;
41687;SDS011;27371;42.686;23.362;2023-02-28T06:58:52;36.17;;;23.60;;
41687;SDS011;27371;42.686;23.362;2023-02-28T07:01:18;40.65;;;24.38;;
41687;SDS011;27371;42.686;23.362;2023-02-28T07:03:44;38.13;;;24.95;;
41687;SDS011;27371;42.686;23.362;2023-02-28T07:06:10;42.45;;;27.40;;
41687;SDS011;27371;42.686;23.362;2023-02-28T07:08:36;47.60;;;29.60;;
41687;SDS011;27371;42.686;23.362;2023-02-28T07:11:01;52.90;;;30.45;;
41687;SDS011;27371;42.686;23.362;2023-02-28T07:13:28;65.82;;;36.10;;
41687;SDS011;27371;42.686;23.362;2023-02-28T07:15:54;72.03;;;38.00;;
41687;SDS011;27371;42.686;23.362;2023-02-28T07:18:21;61.55;;;35.10;;
41687;SDS011;27371;42.686;23.362;2023-02-28T07:20:47;66.07;;;35.03;;
41687;SDS011;27371;42.686;23.362;2023-02-28T07:23:12;67.45;;;36.38;;
41687;SDS011;27371;42.686;23.362;2023-02-28T07:25:38;67.20;;;36.53;;
41687;SDS011;27371;42.686;23.362;2023-02-28T07:28:04;69.00;;;38.55;;
41687;SDS011;27371;42.686;23.362;2023-02-28T07:30:29;55.90;;;34.75;;
41687;SDS011;27371;42.686;23.362;2023-02-28T07:32:55;61.72;;;35.05;;
41687;SDS011;27371;42.686;23.362;2023-02-28T07:35:21;58.03;;;35.65;;
41687;SDS011;27371;42.686;23.362;2023-02-28T07:37:47;62.70;;;36.78;;
41687;SDS011;27371;42.686;23.362;2023-02-28T07:40:13;60.47;;;36.28;;
41687;SDS011;27371;42.686;23.362;2023-02-28T07:42:40;53.65;;;33.45;;
41687;SDS011;27371;42.686;23.362;2023-02-28T07:45:07;52.85;;;33.38;;
41687;SDS011;27371;42.686;23.362;2023-02-28T07:47:36;49.45;;;32.15;;
41687;SDS011;27371;42.686;23.362;2023-02-28T07:50:02;48.75;;;32.08;;
41687;SDS011;27371;42.686;23.362;2023-02-28T07:52:28;46.55;;;29.52;;
41687;SDS011;27371;42.686;23.362;2023-02-28T07:54:53;43.30;;;30.20;;
41687;SDS011;27371;42.686;23.362;2023-02-28T07:57:18;41.83;;;29.90;;
41687;SDS011;27371;42.686;23.362;2023-02-28T07:59:44;45.90;;;29.55;;
41687;SDS011;27371;42.686;23.362;2023-02-28T08:02:13;37.08;;;24.33;;
41687;SDS011;27371;42.686;23.362;2023-02-28T08:04:39;42.42;;;24.63;;
41687;SDS011;27371;42.686;23.362;2023-02-28T08:07:05;35.40;;;25.00;;
41687;SDS011;27371;42.686;23.362;2023-02-28T08:09:32;36.63;;;25.10;;
41687;SDS011;27371;42.686;23.362;2023-02-28T08:11:57;37.33;;;25.05;;
41687;SDS011;27371;42.686;23.362;2023-02-28T08:14:23;37.65;;;25.55;;
41687;SDS011;27371;42.686;23.362;2023-02-28T08:16:48;34.92;;;24.88;;
41687;SDS011;27371;42.686;23.362;2023-02-28T08:19:14;37.33;;;25.50;;
41687;SDS011;27371;42.686;23.362;2023-02-28T08:21:39;34.42;;;24.33;;
41687;SDS011;27371;42.686;23.362;2023-02-28T08:24:05;35.03;;;25.00;;
41687;SDS011;27371;42.686;23.362;2023-02-28T08:26:31;30.67;;;21.05;;
41687;SDS011;27371;42.686;23.362;2023-02-28T08:28:57;34.05;;;23.35;;
41687;SDS011;27371;42.686;23.362;2023-02-28T08:31:23;34.25;;;23.58;;
41687;SDS011;27371;42.686;23.362;2023-02-28T08:33:48;36.17;;;23.88;;
41687;SDS011;27371;42.686;23.362;2023-02-28T08:36:16;31.60;;;23.48;;
41687;SDS011;27371;42.686;23.362;2023-02-28T08:38:42;35.45;;;24.17;;
41687;SDS011;27371;42.686;23.362;2023-02-28T08:41:09;39.00;;;24.15;;
41687;SDS011;27371;42.686;23.362;2023-02-28T08:43:36;36.30;;;22.90;;
41687;SDS011;27371;42.686;23.362;2023-02-28T08:46:02;35.17;;;23.65;;
41687;SDS011;27371;42.686;23.362;2023-02-28T08:48:28;37.00;;;21.88;;
41687;SDS011;27371;42.686;23.362;2023-02-28T08:50:56;32.17;;;19.30;;
41687;SDS011;27371;42.686;23.362;2023-02-28T08:53:22;35.17;;;20.20;;
41687;SDS011;27371;42.686;23.362;2023-02-28T08:55:55;32.92;;;18.85;;
41687;SDS011;27371;42.686;23.362;2023-02-28T08:58:21;27.88;;;17.75;;
41687;SDS011;27371;42.686;23.362;2023-02-28T09:00:47;30.17;;;17.90;;
41687;SDS011;27371;42.686;23.362;2023-02-28T09:03:12;28.45;;;17.77;;
41687;SDS011;27371;42.686;23.362;2023-02-28T09:05:38;35.55;;;18.35;;
41687;SDS011;27371;42.686;23.362;2023-02-28T09:08:03;29.75;;;18.27;;
41687;SDS011;27371;42.686;23.362;2023-02-28T09:10:29;26.95;;;17.33;;
41687;SDS011;27371;42.686;23.362;2023-02-28T09:12:54;27.88;;;17.33;;
41687;SDS011;27371;42.686;23.362;2023-02-28T09:15:20;28.35;;;17.50;;
41687;SDS011;27371;42.686;23.362;2023-02-28T09:17:45;28.25;;;16.98;;
41687;SDS011;27371;42.686;23.362;2023-02-28T09:20:11;29.52;;;17.65;;
41687;SDS011;27371;42.686;23.362;2023-02-28T09:22:37;27.20;;;16.48;;
41687;SDS011;27371;42.686;23.362;2023-02-28T09:25:02;33.70;;;16.13;;
41687;SDS011;27371;42.686;23.362;2023-02-28T09:27:28;26.70;;;16.20;;
41687;SDS011;27371;42.686;23.362;2023-02-28T09:29:53;26.95;;;16.92;;
41687;SDS011;27371;42.686;23.362;2023-02-28T09:32:19;30.45;;;16.88;;
41687;SDS011;27371;42.686;23.362;2023-02-28T09:34:44;32.85;;;16.83;;
41687;SDS011;27371;42.686;23.362;2023-02-28T09:37:10;28.27;;;16.00;;
41687;SDS011;27371;42.686;23.362;2023-02-28T09:39:35;26.73;;;15.95;;
41687;SDS011;27371;42.686;23.362;2023-02-28T09:42:01;31.85;;;16.88;;
41687;SDS011;27371;42.686;23.362;2023-02-28T09:44:32;30.23;;;15.93;;
41687;SDS011;27371;42.686;23.362;2023-02-28T09:47:05;31.77;;;15.88;;
41687;SDS011;27371;42.686;23.362;2023-02-28T09:49:34;29.58;;;13.23;;
41687;SDS011;27371;42.686;23.362;2023-02-28T09:52:44;26.33;;;15.45;;
41687;SDS011;27371;42.686;23.362;2023-02-28T09:55:23;21.98;;;14.63;;
41687;SDS011;27371;42.686;23.362;2023-02-28T09:57:55;26.13;;;12.95;;
41687;SDS011;27371;42.686;23.362;2023-02-28T10:00:27;24.20;;;13.60;;
41687;SDS011;27371;42.686;23.362;2023-02-28T10:08:44;23.50;;;14.38;;
41687;SDS011;27371;42.686;23.362;2023-02-28T10:11:17;23.23;;;13.85;;
41687;SDS011;27371;42.686;23.362;2023-02-28T10:16:28;22.83;;;15.00;;
41687;SDS011;27371;42.686;23.362;2023-02-28T10:19:05;23.27;;;12.50;;
41687;SDS011;27371;42.686;23.362;2023-02-28T10:21:40;30.83;;;12.52;;
41687;SDS011;27371;42.686;23.362;2023-02-28T10:27:06;22.00;;;10.85;;
41687;SDS011;27371;42.686;23.362;2023-02-28T10:29:37;27.83;;;11.77;;
41687;SDS011;27371;42.686;23.362;2023-02-28T10:32:08;21.40;;;10.95;;
41687;SDS011;27371;42.686;23.362;2023-02-28T10:34:38;24.77;;;12.45;;
41687;SDS011;27371;42.686;23.362;2023-02-28T10:37:04;27.50;;;11.48;;
41687;SDS011;27371;42.686;23.362;2023-02-28T10:39:40;19.92;;;10.18;;
41687;SDS011;27371;42.686;23.362;2023-02-28T10:42:26;20.33;;;10.80;;
41687;SDS011;27371;42.686;23.362;2023-02-28T10:47:55;26.95;;;11.73;;
41687;SDS011;27371;42.686;23.362;2023-02-28T10:50:27;23.42;;;9.98;;
41687;SDS011;27371;42.686;23.362;2023-02-28T10:52:52;20.45;;;10.65;;
41687;SDS011;27371;42.686;23.362;2023-02-28T10:55:23;22.52;;;11.48;;
41687;SDS011;27371;42.686;23.362;2023-02-28T10:57:50;26.70;;;12.35;;
41687;SDS011;27371;42.686;23.362;2023-02-28T11:02:45;24.52;;;12.43;;
41687;SDS011;27371;42.686;23.362;2023-02-28T11:08:17;27.10;;;12.35;;
41687;SDS011;27371;42.686;23.362;2023-02-28T11:11:03;21.75;;;12.05;;
41687;SDS011;27371;42.686;23.362;2023-02-28T11:13:34;26.25;;;10.85;;
41687;SDS011;27371;42.686;23.362;2023-02-28T11:16:06;24.33;;;11.82;;
41687;SDS011;27371;42.686;23.362;2023-02-28T11:18:39;23.70;;;11.68;;
41687;SDS011;27371;42.686;23.362;2023-02-28T11:21:05;29.45;;;11.65;;
41687;SDS011;27371;42.686;23.362;2023-02-28T11:23:32;25.38;;;11.43;;
41687;SDS011;27371;42.686;23.362;2023-02-28T11:26:02;18.20;;;10.93;;
41687;SDS011;27371;42.686;23.362;2023-02-28T11:28:33;24.38;;;12.40;;
41687;SDS011;27371;42.686;23.362;2023-02-28T11:31:03;28.10;;;13.55;;
41687;SDS011;27371;42.686;23.362;2023-02-28T11:33:30;26.17;;;13.05;;
41687;SDS011;27371;42.686;23.362;2023-02-28T11:36:00;21.30;;;11.35;;
41687;SDS011;27371;42.686;23.362;2023-02-28T11:38:34;25.60;;;13.52;;
41687;SDS011;27371;42.686;23.362;2023-02-28T11:46:43;22.92;;;13.02;;
41687;SDS011;27371;42.686;23.362;2023-02-28T11:57:57;26.02;;;13.55;;
41687;SDS011;27371;42.686;23.362;2023-02-28T12:11:40;31.98;;;12.30;;
41687;SDS011;27371;42.686;23.362;2023-02-28T12:19:19;28.33;;;13.55;;
41687;SDS011;27371;42.686;23.362;2023-02-28T12:27:09;32.88;;;12.50;;
41687;SDS011;27371;42.686;23.362;2023-02-28T12:29:47;23.92;;;13.00;;
41687;SDS011;27371;42.686;23.362;2023-02-28T12:32:38;25.25;;;13.48;;
41687;SDS011;27371;42.686;23.362;2023-02-28T12:35:04;23.23;;;12.13;;
41687;SDS011;27371;42.686;23.362;2023-02-28T12:37:42;25.70;;;11.82;;
41687;SDS011;27371;42.686;23.362;2023-02-28T12:42:40;25.52;;;12.15;;
41687;SDS011;27371;42.686;23.362;2023-02-28T12:45:20;25.42;;;12.30;;
41687;SDS011;27371;42.686;23.362;2023-02-28T12:47:55;22.90;;;11.43;;
41687;SDS011;27371;42.686;23.362;2023-02-28T12:50:25;29.33;;;11.50;;
41687;SDS011;27371;42.686;23.362;2023-02-28T12:52:54;25.58;;;11.32;;
41687;SDS011;27371;42.686;23.362;2023-02-28T12:58:35;24.27;;;10.20;;
41687;SDS011;27371;42.686;23.362;2023-02-28T13:01:14;22.17;;;11.38;;
41687;SDS011;27371;42.686;23.362;2023-02-28T13:09:17;24.25;;;12.25;;
41687;SDS011;27371;42.686;23.362;2023-02-28T13:11:48;18.98;;;10.32;;
41687;SDS011;27371;42.686;23.362;2023-02-28T13:14:20;27.27;;;10.38;;
41687;SDS011;27371;42.686;23.362;2023-02-28T13:16:59;23.13;;;10.48;;
41687;SDS011;27371;42.686;23.362;2023-02-28T13:19:34;18.55;;;9.77;;
41687;SDS011;27371;42.686;23.362;2023-02-28T13:22:02;27.30;;;11.57;;
41687;SDS011;27371;42.686;23.362;2023-02-28T13:29:34;25.42;;;11.00;;
41687;SDS011;27371;42.686;23.362;2023-02-28T13:34:37;28.98;;;12.00;;
41687;SDS011;27371;42.686;23.362;2023-02-28T13:55:54;24.13;;;11.18;;
41687;SDS011;27371;42.686;23.362;2023-02-28T14:06:52;20.00;;;9.68;;
41687;SDS011;27371;42.686;23.362;2023-02-28T14:11:55;20.60;;;10.80;;
41687;SDS011;27371;42.686;23.362;2023-02-28T14:17:22;25.00;;;10.73;;
41687;SDS011;27371;42.686;23.362;2023-02-28T14:19:47;24.20;;;10.73;;
41687;SDS011;27371;42.686;23.362;2023-02-28T14:31:18;27.13;;;12.60;;
41687;SDS011;27371;42.686;23.362;2023-02-28T14:36:31;18.95;;;10.80;;
41687;SDS011;27371;42.686;23.362;2023-02-28T14:39:00;17.58;;;10.32;;
41687;SDS011;27371;42.686;23.362;2023-02-28T14:44:00;22.73;;;10.07;;
41687;SDS011;27371;42.686;23.362;2023-02-28T14:46:35;19.25;;;10.63;;
41687;SDS011;27371;42.686;23.362;2023-02-28T14:49:06;19.05;;;10.20;;
41687;SDS011;27371;42.686;23.362;2023-02-28T14:51:37;28.90;;;11.52;;
41687;SDS011;27371;42.686;23.362;2023-02-28T14:54:03;22.20;;;9.75;;
41687;SDS011;27371;42.686;23.362;2023-02-28T14:56:36;20.33;;;10.32;;
41687;SDS011;27371;42.686;23.362;2023-02-28T14:59:03;22.13;;;10.55;;
41687;SDS011;27371;42.686;23.362;2023-02-28T15:01:30;27.00;;;11.07;;
41687;SDS011;27371;42.686;23.362;2023-02-28T15:04:03;26.90;;;11.10;;
41687;SDS011;27371;42.686;23.362;2023-02-28T15:06:31;24.45;;;11.32;;
41687;SDS011;27371;42.686;23.362;2023-02-28T15:11:55;31.73;;;10.73;;
41687;SDS011;27371;42.686;23.362;2023-02-28T15:14:21;27.73;;;9.63;;
41687;SDS011;27371;42.686;23.362;2023-02-28T15:16:49;22.42;;;9.75;;
41687;SDS011;27371;42.686;23.362;2023-02-28T15:19:30;25.60;;;9.75;;
41687;SDS011;27371;42.686;23.362;2023-02-28T15:22:06;24.85;;;10.05;;
41687;SDS011;27371;42.686;23.362;2023-02-28T15:24:41;18.40;;;8.82;;
41687;SDS011;27371;42.686;23.362;2023-02-28T15:27:31;21.90;;;9.75;;
41687;SDS011;27371;42.686;23.362;2023-02-28T15:29:59;24.10;;;10.32;;
41687;SDS011;27371;42.686;23.362;2023-02-28T15:32:34;16.13;;;9.20;;
41687;SDS011;27371;42.686;23.362;2023-02-28T15:35:20;15.95;;;8.38;;
41687;SDS011;27371;42.686;23.362;2023-02-28T15:37:56;20.42;;;9.27;;
41687;SDS011;27371;42.686;23.362;2023-02-28T15:43:05;19.60;;;8.60;;
41687;SDS011;27371;42.686;23.362;2023-02-28T15:48:16;17.10;;;9.10;;
41687;SDS011;27371;42.686;23.362;2023-02-28T15:50:49;14.77;;;8.75;;
41687;SDS011;27371;42.686;23.362;2023-02-28T15:53:19;17.02;;;8.80;;
41687;SDS011;27371;42.686;23.362;2023-02-28T15:55:55;13.02;;;8.85;;
41687;SDS011;27371;42.686;23.362;2023-02-28T15:58:24;17.08;;;10.00;;
41687;SDS011;27371;42.686;23.362;2023-02-28T16:01:03;13.57;;;9.85;;
41687;SDS011;27371;42.686;23.362;2023-02-28T16:03:39;20.20;;;10.25;;
41687;SDS011;27371;42.686;23.362;2023-02-28T16:06:09;18.70;;;13.07;;
41687;SDS011;27371;42.686;23.362;2023-02-28T16:08:46;37.67;;;23.45;;
41687;SDS011;27371;42.686;23.362;2023-02-28T16:11:13;70.60;;;41.90;;
41687;SDS011;27371;42.686;23.362;2023-02-28T16:13:40;37.25;;;25.00;;
41687;SDS011;27371;42.686;23.362;2023-02-28T16:16:05;40.22;;;24.83;;
41687;SDS011;27371;42.686;23.362;2023-02-28T16:18:31;34.25;;;20.38;;
41687;SDS011;27371;42.686;23.362;2023-02-28T16:20:56;28.92;;;17.70;;
41687;SDS011;27371;42.686;23.362;2023-02-28T16:23:22;26.80;;;12.82;;
41687;SDS011;27371;42.686;23.362;2023-02-28T16:25:47;22.90;;;12.05;;
41687;SDS011;27371;42.686;23.362;2023-02-28T16:28:36;18.08;;;9.95;;
41687;SDS011;27371;42.686;23.362;2023-02-28T16:31:01;23.27;;;10.43;;
41687;SDS011;27371;42.686;23.362;2023-02-28T16:33:29;25.52;;;11.95;;
41687;SDS011;27371;42.686;23.362;2023-02-28T16:35:55;22.48;;;10.20;;
41687;SDS011;27371;42.686;23.362;2023-02-28T16:38:20;17.55;;;8.68;;
41687;SDS011;27371;42.686;23.362;2023-02-28T16:40:48;11.65;;;7.05;;
41687;SDS011;27371;42.686;23.362;2023-02-28T16:43:18;11.63;;;7.78;;
41687;SDS011;27371;42.686;23.362;2023-02-28T16:45:48;16.98;;;8.32;;
41687;SDS011;27371;42.686;23.362;2023-02-28T16:48:14;11.45;;;6.82;;
41687;SDS011;27371;42.686;23.362;2023-02-28T16:50:41;11.98;;;6.80;;
41687;SDS011;27371;42.686;23.362;2023-02-28T16:53:09;13.68;;;6.30;;
41687;SDS011;27371;42.686;23.362;2023-02-28T16:55:35;11.50;;;7.20;;
41687;SDS011;27371;42.686;23.362;2023-02-28T16:58:01;11.80;;;6.80;;
41687;SDS011;27371;42.686;23.362;2023-02-28T17:00:27;11.80;;;6.35;;
41687;SDS011;27371;42.686;23.362;2023-02-28T17:02:55;18.52;;;7.03;;
41687;SDS011;27371;42.686;23.362;2023-02-28T17:05:21;11.02;;;6.75;;
41687;SDS011;27371;42.686;23.362;2023-02-28T17:07:48;10.13;;;6.05;;
41687;SDS011;27371;42.686;23.362;2023-02-28T17:10:15;10.52;;;6.07;;
41687;SDS011;27371;42.686;23.362;2023-02-28T17:12:42;10.93;;;5.55;;
41687;SDS011;27371;42.686;23.362;2023-02-28T17:15:09;9.65;;;5.40;;
41687;SDS011;27371;42.686;23.362;2023-02-28T17:17:36;8.48;;;5.22;;
41687;SDS011;27371;42.686;23.362;2023-02-28T17:20:02;9.57;;;5.75;;
41687;SDS011;27371;42.686;23.362;2023-02-28T17:22:28;8.65;;;5.55;;